createdAt,value
2019-01-14T00:00:50.002Z,99.90
2019-01-14T00:03:31.032Z,99.90
2019-01-14T00:05:58.639Z,99.90
2019-01-14T00:08:45.725Z,99.90
2019-01-14T00:11:26.921Z,99.90
2019-01-14T00:14:06.598Z,99.90
2019-01-14T00:19:27.879Z,99.90
2019-01-14T00:22:08.582Z,99.90
2019-01-14T00:24:49.318Z,99.90
2019-01-14T00:27:33.528Z,99.90
2019-01-14T00:30:14.474Z,99.90
2019-01-14T00:32:55.359Z,99.90
2019-01-14T00:35:36.477Z,99.90
2019-01-14T00:38:17.040Z,99.90
2019-01-14T00:41:02.306Z,99.90
2019-01-14T00:43:35.597Z,99.90
2019-01-14T00:46:22.934Z,99.90
2019-01-14T00:49:05.176Z,99.90
2019-01-14T00:51:46.214Z,99.90
2019-01-14T00:54:28.041Z,99.90
2019-01-14T00:57:10.678Z,99.90
2019-01-14T00:59:52.039Z,99.90
2019-01-14T01:02:33.723Z,99.90
2019-01-14T01:05:14.386Z,99.90
2019-01-14T01:07:54.566Z,99.90
2019-01-14T01:10:34.519Z,99.90
2019-01-14T01:13:14.446Z,99.90
2019-01-14T01:15:54.452Z,99.90
2019-01-14T01:18:34.750Z,99.90
2019-01-14T01:21:14.929Z,99.90
2019-01-14T01:23:55.522Z,99.90
2019-01-14T01:26:36.882Z,99.90
2019-01-14T01:29:17.414Z,99.90
2019-01-14T01:31:58.863Z,99.90
2019-01-14T01:34:39.803Z,99.90
2019-01-14T01:37:20.846Z,99.90
2019-01-14T01:40:02.193Z,99.90
2019-01-14T01:42:29.950Z,99.90
2019-01-14T01:45:16.822Z,99.90
2019-01-14T01:47:56.514Z,99.90
2019-01-14T01:50:36.546Z,99.90
2019-01-14T01:53:16.390Z,99.90
2019-01-14T01:55:57.294Z,99.90
2019-01-14T01:58:38.775Z,99.90
2019-01-14T02:01:24.319Z,99.90
2019-01-14T02:04:06.040Z,99.90
2019-01-14T02:06:49.474Z,99.90
2019-01-14T02:09:30.930Z,99.90
2019-01-14T02:12:10.862Z,99.90
2019-01-14T02:14:51.451Z,99.90
2019-01-14T02:17:31.090Z,99.90
2019-01-14T02:20:10.998Z,99.90
2019-01-14T02:25:52.887Z,99.90
2019-01-14T02:28:34.565Z,99.90
2019-01-14T02:31:15.496Z,99.90
2019-01-14T02:33:56.294Z,99.90
2019-01-14T02:36:37.435Z,99.90
2019-01-14T02:39:18.503Z,99.90
2019-01-14T02:41:58.521Z,99.90
2019-01-14T02:44:38.698Z,99.90
2019-01-14T02:47:18.933Z,99.90
2019-01-14T02:49:59.205Z,99.90
2019-01-14T02:52:39.711Z,99.90
2019-01-14T02:58:29.817Z,99.90
2019-01-14T03:01:18.667Z,99.90
2019-01-14T03:04:00.793Z,99.90
2019-01-14T03:06:41.162Z,99.90
2019-01-14T03:09:21.031Z,99.90
2019-01-14T03:12:00.934Z,99.90
2019-01-14T03:14:41.646Z,99.90
2019-01-14T03:17:21.338Z,99.90
2019-01-14T03:20:02.547Z,99.90
2019-01-14T03:22:43.706Z,99.90
2019-01-14T03:25:24.557Z,99.90
2019-01-14T03:28:08.983Z,99.90
2019-01-14T03:30:52.409Z,99.90
2019-01-14T03:33:33.714Z,99.90
2019-01-14T03:36:13.515Z,99.90
2019-01-14T03:38:53.849Z,99.90
2019-01-14T03:41:33.673Z,99.90
2019-01-14T03:44:13.638Z,99.90
2019-01-14T03:46:56.552Z,99.90
2019-01-14T03:49:37.952Z,99.90
2019-01-14T03:52:18.852Z,99.90
2019-01-14T03:54:59.956Z,99.90
2019-01-14T03:57:31.460Z,99.90
2019-01-14T04:00:20.557Z,99.90
2019-01-14T04:03:02.587Z,99.90
2019-01-14T04:05:31.108Z,99.90
2019-01-14T04:08:18.780Z,99.90
2019-01-14T04:10:58.864Z,99.90
2019-01-14T04:13:40.370Z,99.90
2019-01-14T04:16:20.886Z,99.90
2019-01-14T04:19:00.659Z,99.90
2019-01-14T04:21:42.187Z,99.90
2019-01-14T04:24:23.034Z,99.90
2019-01-14T04:27:04.131Z,99.90
2019-01-14T04:29:44.966Z,99.90
2019-01-14T04:32:25.974Z,99.90
2019-01-14T04:35:06.977Z,99.90
2019-01-14T04:37:38.875Z,99.90
2019-01-14T04:40:08.638Z,99.90
2019-01-14T04:42:49.390Z,99.90
2019-01-14T04:45:29.375Z,99.90
2019-01-14T04:48:09.201Z,99.90
2019-01-14T04:50:49.318Z,99.90
2019-01-14T04:53:28.703Z,99.90
2019-01-14T04:56:08.871Z,99.90
2019-01-14T04:58:49.506Z,99.90
2019-01-14T05:01:30.741Z,99.90
2019-01-14T05:04:11.978Z,99.90
2019-01-14T05:06:40.129Z,99.90
2019-01-14T05:09:28.779Z,99.90
2019-01-14T05:12:10.123Z,99.90
2019-01-14T05:14:51.427Z,99.90
2019-01-14T05:17:31.508Z,99.90
2019-01-14T05:20:11.067Z,99.90
2019-01-14T05:22:51.256Z,99.90
2019-01-14T05:25:31.610Z,99.90
2019-01-14T05:28:11.570Z,99.90
2019-01-14T05:30:52.794Z,99.90
2019-01-14T05:33:34.063Z,99.90
2019-01-14T05:36:15.294Z,99.90
2019-01-14T05:38:43.346Z,99.90
2019-01-14T05:41:32.031Z,99.90
2019-01-14T05:44:14.151Z,99.90
2019-01-14T05:46:55.054Z,99.90
2019-01-14T05:49:35.118Z,99.90
2019-01-14T05:52:15.616Z,99.90
2019-01-14T05:54:55.914Z,99.90
2019-01-14T05:57:36.146Z,99.90
2019-01-14T06:00:16.598Z,99.90
2019-01-14T06:02:57.291Z,99.90
2019-01-14T06:05:42.684Z,99.90
2019-01-14T06:08:24.003Z,99.90
2019-01-14T06:11:04.729Z,99.90
2019-01-14T06:13:46.261Z,99.90
2019-01-14T06:16:27.182Z,99.90
2019-01-14T06:19:07.781Z,99.90
2019-01-14T06:21:47.736Z,99.90
2019-01-14T06:24:27.862Z,99.90
2019-01-14T06:27:08.168Z,99.90
2019-01-14T06:29:38.320Z,99.90
2019-01-14T06:32:25.251Z,99.90
2019-01-14T06:35:07.099Z,99.90
2019-01-14T06:37:52.338Z,99.90
2019-01-14T06:40:31.541Z,99.90
2019-01-14T06:43:12.098Z,99.90
2019-01-14T06:45:53.470Z,99.90
2019-01-14T06:48:34.459Z,99.90
2019-01-14T06:51:15.714Z,99.90
2019-01-14T06:53:55.771Z,99.90
2019-01-14T06:56:35.590Z,99.90
2019-01-14T06:59:15.254Z,99.90
2019-01-14T07:02:02.627Z,99.90
2019-01-14T07:04:51.487Z,99.90
2019-01-14T07:07:34.067Z,99.90
2019-01-14T07:10:14.591Z,99.90
2019-01-14T07:12:55.776Z,99.90
2019-01-14T07:15:24.228Z,99.90
2019-01-14T07:18:12.743Z,99.90
2019-01-14T07:20:54.738Z,99.90
2019-01-14T07:23:36.856Z,99.90
2019-01-14T07:26:16.960Z,99.90
2019-01-14T07:28:56.806Z,99.90
2019-01-14T07:31:24.322Z,99.90
2019-01-14T07:34:03.876Z,99.90
2019-01-14T07:36:44.050Z,99.90
2019-01-14T07:39:25.095Z,99.90
2019-01-14T07:42:06.259Z,99.90
2019-01-14T07:44:46.971Z,99.90
2019-01-14T07:47:28.160Z,99.90
2019-01-14T07:50:09.082Z,99.90
2019-01-14T07:52:50.084Z,99.90
2019-01-14T07:55:31.314Z,99.90
2019-01-14T07:58:11.666Z,99.90
2019-01-14T08:00:51.506Z,99.90
2019-01-14T08:03:31.807Z,99.90
2019-01-14T08:06:16.094Z,99.90
2019-01-14T08:08:55.875Z,99.90
2019-01-14T08:11:36.842Z,99.90
2019-01-14T08:14:18.074Z,99.90
2019-01-14T08:16:59.564Z,99.90
2019-01-14T08:19:41.343Z,99.90
2019-01-14T08:22:21.990Z,99.90
2019-01-14T08:25:03.018Z,99.90
2019-01-14T08:27:44.181Z,99.90
2019-01-14T08:30:24.467Z,99.90
2019-01-14T08:33:04.531Z,99.90
2019-01-14T08:35:44.469Z,99.90
2019-01-14T08:38:24.161Z,99.90
2019-01-14T08:41:04.584Z,99.90
2019-01-14T08:50:14.561Z,99.90
2019-01-14T08:53:01.832Z,99.90
2019-01-14T08:55:42.624Z,99.90
2019-01-14T08:58:25.257Z,99.90
2019-01-14T09:01:06.603Z,99.90
2019-01-14T09:03:47.678Z,99.90
2019-01-14T09:06:28.886Z,99.90
2019-01-14T09:09:09.626Z,99.90
2019-01-14T09:11:51.002Z,99.90
2019-01-14T09:14:31.491Z,99.90
2019-01-14T09:17:13.621Z,99.90
2019-01-14T09:19:55.540Z,99.90
2019-01-14T09:22:35.551Z,99.90
2019-01-14T09:25:15.514Z,99.90
2019-01-14T09:27:55.578Z,99.90
2019-01-14T09:30:24.826Z,99.90
2019-01-14T09:33:11.662Z,99.90
2019-01-14T09:36:00.354Z,99.90
2019-01-14T09:38:41.873Z,99.90
2019-01-14T09:41:24.071Z,99.90
2019-01-14T09:44:05.610Z,99.90
2019-01-14T09:49:30.239Z,99.90
2019-01-14T09:52:10.355Z,99.90
2019-01-14T09:54:50.203Z,99.90
2019-01-14T09:57:30.340Z,99.90
2019-01-14T10:00:11.263Z,99.90
2019-01-14T10:02:38.438Z,99.90
2019-01-14T10:05:08.006Z,99.90
2019-01-14T10:07:48.203Z,99.90
2019-01-14T10:10:29.012Z,99.90
2019-01-14T10:13:10.134Z,99.90
2019-01-14T10:15:51.159Z,99.90
2019-01-14T10:18:32.283Z,99.90
2019-01-14T10:21:03.199Z,99.90
2019-01-14T10:23:51.806Z,99.90
2019-01-14T10:26:23.774Z,99.90
2019-01-14T10:29:21.695Z,99.90
2019-01-14T10:32:01.600Z,99.90
2019-01-14T10:34:41.718Z,99.90
2019-01-14T10:37:22.910Z,99.90
2019-01-14T10:39:56.969Z,99.90
2019-01-14T10:42:45.518Z,99.90
2019-01-14T10:45:19.103Z,99.90
2019-01-14T10:48:08.094Z,99.90
2019-01-14T10:50:37.081Z,99.30
2019-01-14T10:53:26.018Z,93.80
2019-01-14T10:56:07.686Z,90.30
2019-01-14T10:58:47.509Z,91.50
2019-01-14T11:01:27.315Z,92.30
2019-01-14T11:04:07.257Z,94.20
2019-01-14T11:06:47.604Z,93.70
2019-01-14T11:09:27.854Z,93.70
2019-01-14T11:12:08.191Z,91.60
2019-01-14T11:14:49.347Z,93.70
2019-01-14T11:17:19.815Z,90.30
2019-01-14T11:20:14.102Z,93.40
2019-01-14T11:22:56.447Z,92.80
2019-01-14T11:25:37.520Z,90.40
2019-01-14T11:28:18.491Z,90.90
2019-01-14T11:30:45.950Z,90.00
2019-01-14T11:33:15.978Z,81.00
2019-01-14T11:36:02.984Z,84.60
2019-01-14T11:38:42.519Z,83.90
2019-01-14T11:41:22.546Z,81.00
2019-01-14T11:43:55.342Z,82.90
2019-01-14T11:46:42.262Z,81.70
2019-01-14T11:49:22.631Z,77.70
2019-01-14T11:52:02.378Z,77.30
2019-01-14T11:54:54.910Z,77.70
2019-01-14T11:57:43.477Z,82.00
2019-01-14T12:00:36.606Z,76.40
2019-01-14T12:03:13.990Z,70.30
2019-01-14T12:05:55.483Z,71.70
2019-01-14T12:08:35.238Z,72.70
2019-01-14T12:11:15.389Z,76.90
2019-01-14T12:13:55.466Z,73.50
2019-01-14T12:16:35.305Z,73.40
2019-01-14T12:19:15.244Z,73.10
2019-01-14T12:21:47.262Z,67.20
2019-01-14T12:24:36.383Z,67.20
2019-01-14T12:27:25.774Z,67.60
2019-01-14T12:30:19.486Z,64.70
2019-01-14T12:33:03.101Z,70.20
2019-01-14T12:35:43.814Z,68.80
2019-01-14T12:41:03.858Z,67.00
2019-01-14T12:43:45.063Z,60.00
2019-01-14T12:46:25.382Z,58.90
2019-01-14T12:49:06.359Z,58.30
2019-01-14T12:51:47.193Z,56.60
2019-01-14T12:54:28.526Z,50.40
2019-01-14T12:57:09.564Z,50.70
2019-01-14T12:59:50.581Z,51.50
2019-01-14T13:02:31.752Z,50.20
2019-01-14T13:05:12.620Z,51.10
2019-01-14T13:07:52.532Z,51.30
2019-01-14T13:10:32.732Z,49.10
2019-01-14T13:13:12.963Z,48.60
2019-01-14T13:15:45.219Z,47.90
2019-01-14T13:18:32.422Z,49.30
2019-01-14T13:21:03.129Z,48.60
2019-01-14T13:23:43.186Z,48.90
2019-01-14T13:26:24.356Z,50.40
2019-01-14T13:29:05.564Z,49.70
2019-01-14T13:31:46.487Z,55.10
2019-01-14T13:34:27.277Z,51.80
2019-01-14T13:37:08.583Z,50.10
2019-01-14T13:39:52.574Z,53.90
2019-01-14T13:42:21.313Z,55.20
2019-01-14T13:45:11.346Z,52.10
2019-01-14T13:47:51.429Z,51.70
2019-01-14T13:50:31.515Z,46.90
2019-01-14T13:53:11.586Z,46.20
2019-01-14T13:55:51.684Z,50.80
2019-01-14T13:58:43.622Z,50.80
2019-01-14T14:01:32.394Z,48.00
2019-01-14T14:04:14.145Z,51.90
2019-01-14T14:06:45.138Z,53.40
2019-01-14T14:09:26.224Z,56.10
2019-01-14T14:12:07.175Z,51.40
2019-01-14T14:14:47.819Z,51.30
2019-01-14T14:17:27.467Z,49.50
2019-01-14T14:20:07.568Z,49.70
2019-01-14T14:22:47.920Z,53.90
2019-01-14T14:25:27.642Z,56.00
2019-01-14T14:27:59.314Z,54.20
2019-01-14T14:30:47.879Z,56.20
2019-01-14T14:33:18.442Z,57.80
2019-01-14T14:36:07.044Z,57.10
2019-01-14T14:38:37.196Z,55.10
2019-01-14T14:41:27.168Z,49.60
2019-01-14T14:44:32.418Z,46.90
2019-01-14T14:47:11.778Z,48.00
2019-01-14T14:49:52.316Z,46.60
2019-01-14T14:52:32.052Z,46.70
2019-01-14T14:55:12.933Z,49.40
2019-01-14T14:57:41.397Z,45.60
2019-01-14T15:00:30.310Z,45.60
2019-01-14T15:03:12.179Z,49.80
2019-01-14T15:05:53.291Z,47.40
2019-01-14T15:08:35.163Z,46.70
2019-01-14T15:11:16.107Z,42.00
2019-01-14T15:13:56.186Z,43.30
2019-01-14T15:16:36.423Z,40.80
2019-01-14T15:19:16.493Z,41.10
2019-01-14T15:21:56.675Z,39.70
2019-01-14T15:24:36.605Z,40.20
2019-01-14T15:27:18.016Z,42.60
2019-01-14T15:29:58.826Z,44.60
2019-01-14T15:32:39.923Z,41.80
2019-01-14T15:35:21.288Z,41.50
2019-01-14T15:38:02.337Z,41.50
2019-01-14T15:40:43.321Z,41.20
2019-01-14T15:43:24.654Z,45.20
2019-01-14T15:46:04.511Z,42.40
2019-01-14T15:48:44.529Z,42.10
2019-01-14T15:51:25.268Z,42.40
2019-01-14T15:54:05.505Z,47.10
2019-01-14T15:56:45.703Z,45.50
2019-01-14T15:59:26.734Z,45.90
2019-01-14T16:02:07.821Z,46.70
2019-01-14T16:04:52.363Z,46.70
2019-01-14T16:07:33.466Z,46.30
2019-01-14T16:10:14.795Z,46.60
2019-01-14T16:12:56.028Z,45.90
2019-01-14T16:15:35.662Z,47.70
2019-01-14T16:18:18.263Z,47.20
2019-01-14T16:20:58.755Z,47.60
2019-01-14T16:23:38.630Z,46.00
2019-01-14T16:26:18.418Z,46.80
2019-01-14T16:28:58.454Z,45.80
2019-01-14T16:31:39.330Z,48.00
2019-01-14T16:34:20.518Z,47.30
2019-01-14T16:37:01.459Z,48.00
2019-01-14T16:39:42.561Z,49.90
2019-01-14T16:42:23.775Z,48.90
2019-01-14T16:45:04.783Z,51.00
2019-01-14T16:47:45.608Z,49.40
2019-01-14T16:50:25.722Z,49.20
2019-01-14T16:53:05.692Z,48.90
2019-01-14T16:55:48.613Z,49.00
2019-01-14T16:58:28.072Z,50.60
2019-01-14T17:01:08.163Z,50.40
2019-01-14T17:03:48.997Z,50.80
2019-01-14T17:06:30.191Z,50.70
2019-01-14T17:09:11.230Z,49.90
2019-01-14T17:11:52.404Z,50.60
2019-01-14T17:14:33.275Z,51.90
2019-01-14T17:17:14.379Z,52.20
2019-01-14T17:19:55.603Z,52.90
2019-01-14T17:22:35.870Z,53.80
2019-01-14T17:25:04.363Z,53.80
2019-01-14T17:27:51.034Z,53.90
2019-01-14T17:30:30.630Z,54.50
2019-01-14T17:33:10.450Z,55.50
2019-01-14T17:35:51.402Z,55.90
2019-01-14T17:38:32.920Z,53.60
2019-01-14T17:41:13.642Z,52.30
2019-01-14T17:43:54.629Z,53.80
2019-01-14T17:46:41.162Z,53.70
2019-01-14T17:49:22.338Z,54.90
2019-01-14T17:52:03.906Z,54.20
2019-01-14T17:54:43.527Z,55.00
2019-01-14T17:57:24.100Z,56.00
2019-01-14T18:00:04.443Z,56.80
2019-01-14T18:02:44.592Z,59.10
2019-01-14T18:05:24.615Z,60.80
2019-01-14T18:08:05.687Z,68.00
2019-01-14T18:10:39.844Z,73.80
2019-01-14T18:13:28.587Z,76.30
2019-01-14T18:16:10.809Z,83.20
2019-01-14T18:18:40.023Z,86.10
2019-01-14T18:21:28.631Z,88.00
2019-01-14T18:23:59.084Z,90.80
2019-01-14T18:26:47.814Z,91.90
2019-01-14T18:29:27.930Z,92.40
2019-01-14T18:32:07.811Z,93.10
2019-01-14T18:34:48.028Z,95.20
2019-01-14T18:37:34.054Z,95.00
2019-01-14T18:40:15.491Z,95.40
2019-01-14T18:42:56.546Z,95.40
2019-01-14T18:45:37.643Z,95.20
2019-01-14T18:48:18.523Z,95.90
2019-01-14T18:50:59.824Z,94.70
2019-01-14T18:53:47.830Z,95.30
2019-01-14T18:56:34.506Z,95.10
2019-01-14T18:59:14.182Z,94.00
2019-01-14T19:01:53.911Z,94.40
2019-01-14T19:04:34.000Z,95.20
2019-01-14T19:07:14.139Z,94.50
2019-01-14T19:09:55.211Z,94.00
2019-01-14T19:12:36.411Z,94.30
2019-01-14T19:15:17.573Z,93.90
2019-01-14T19:17:47.338Z,93.00
2019-01-14T19:20:36.159Z,93.40
2019-01-14T19:23:07.461Z,93.30
2019-01-14T19:25:56.098Z,92.70
2019-01-14T19:28:25.724Z,91.80
2019-01-14T19:31:12.343Z,92.10
2019-01-14T19:33:51.936Z,91.90
2019-01-14T19:36:31.758Z,91.10
2019-01-14T19:39:11.739Z,91.20
2019-01-14T19:41:52.239Z,91.10
2019-01-14T19:44:33.231Z,90.50
2019-01-14T19:47:14.344Z,90.50
2019-01-14T19:49:55.360Z,91.00
2019-01-14T19:52:23.440Z,90.20
2019-01-14T19:55:12.842Z,90.50
2019-01-14T19:58:03.345Z,89.70
2019-01-14T20:00:50.020Z,90.30
2019-01-14T20:03:29.703Z,90.80
2019-01-14T20:06:09.614Z,91.10
2019-01-14T20:08:56.303Z,91.00
2019-01-14T20:11:59.285Z,91.10
2019-01-14T20:14:46.907Z,91.60
2019-01-14T20:17:14.841Z,93.00
2019-01-14T20:20:16.528Z,91.80
2019-01-14T20:22:43.809Z,92.10
2019-01-14T20:25:23.495Z,91.90
2019-01-14T20:28:03.250Z,91.70
2019-01-14T20:30:30.574Z,91.80
2019-01-14T20:33:19.507Z,91.80
2019-01-14T20:36:05.875Z,91.90
2019-01-14T20:38:48.717Z,91.80
2019-01-14T20:41:29.915Z,91.00
2019-01-14T20:44:10.805Z,91.00
2019-01-14T20:46:52.105Z,90.10
2019-01-14T20:49:41.731Z,89.20
2019-01-14T20:52:29.496Z,87.80
2019-01-14T20:55:09.407Z,88.10
2019-01-14T20:57:39.842Z,87.70
2019-01-14T21:00:26.516Z,87.00
2019-01-14T21:03:06.265Z,85.10
2019-01-14T21:05:47.458Z,85.30
2019-01-14T21:08:17.542Z,85.40
2019-01-14T21:14:10.389Z,86.50
2019-01-14T21:16:51.438Z,87.50
2019-01-14T21:19:32.722Z,88.70
2019-01-14T21:22:12.323Z,89.50
2019-01-14T21:24:52.811Z,89.50
2019-01-14T21:27:32.876Z,90.50
2019-01-14T21:30:12.826Z,91.70
2019-01-14T21:32:52.950Z,91.20
2019-01-14T21:35:33.918Z,91.10
2019-01-14T21:38:14.820Z,90.60
2019-01-14T21:40:43.215Z,90.20
2019-01-14T21:43:39.046Z,90.40
2019-01-14T21:46:08.441Z,91.00
2019-01-14T21:48:57.235Z,91.40
2019-01-14T21:51:38.839Z,90.80
2019-01-14T21:54:18.911Z,90.90
2019-01-14T21:56:58.843Z,90.30
2019-01-14T21:59:38.922Z,90.70
2019-01-14T22:02:19.627Z,91.50
2019-01-14T22:04:59.334Z,91.60
2019-01-14T22:07:39.446Z,91.10
2019-01-14T22:10:20.622Z,91.20
2019-01-14T22:13:01.692Z,91.60
2019-01-14T22:15:42.858Z,91.90
2019-01-14T22:18:23.943Z,93.30
2019-01-14T22:21:05.568Z,93.00
2019-01-14T22:23:46.503Z,94.20
2019-01-14T22:26:13.530Z,94.50
2019-01-14T22:29:00.355Z,94.50
2019-01-14T22:31:40.420Z,93.80
2019-01-14T22:34:20.506Z,94.50
2019-01-14T22:37:00.551Z,95.90
2019-01-14T22:39:40.637Z,95.90
2019-01-14T22:42:20.544Z,97.30
2019-01-14T22:45:01.547Z,97.00
2019-01-14T22:47:42.594Z,96.00
2019-01-14T22:50:23.641Z,95.30
2019-01-14T22:53:04.807Z,95.70
2019-01-14T22:55:46.099Z,96.20
2019-01-14T22:58:27.266Z,95.80
2019-01-14T23:01:12.962Z,96.30
2019-01-14T23:03:54.260Z,96.10
2019-01-14T23:06:34.001Z,95.50
2019-01-14T23:09:16.131Z,95.10
2019-01-14T23:11:43.557Z,94.70
2019-01-14T23:14:10.872Z,96.00
2019-01-14T23:16:50.997Z,95.50
2019-01-14T23:19:17.922Z,95.50
2019-01-14T23:22:04.615Z,96.70
2019-01-14T23:24:44.400Z,97.30
2019-01-14T23:27:25.643Z,98.40
2019-01-14T23:30:06.410Z,99.20
2019-01-14T23:32:47.436Z,99.20
2019-01-14T23:35:28.578Z,98.90
2019-01-14T23:38:09.690Z,99.60
2019-01-14T23:40:50.656Z,99.90
2019-01-14T23:43:31.770Z,99.90
2019-01-14T23:46:12.150Z,99.90
2019-01-14T23:48:52.005Z,99.90
2019-01-14T23:51:33.512Z,99.90
2019-01-14T23:54:13.014Z,99.90
2019-01-14T23:56:40.049Z,99.90
2019-01-14T23:59:26.720Z,99.90
